sensor_id;sensor_type;location;lat;lon;timestamp;temperature;humidity
37410;DHT22;23275;48.914;12.566;2023-03-01T00:01:23;0.20;99.90
37410;DHT22;23275;48.914;12.566;2023-03-01T00:03:50;0.20;99.90
37410;DHT22;23275;48.914;12.566;2023-03-01T00:06:16;0.20;99.90
37410;DHT22;23275;48.914;12.566;2023-03-01T00:08:42;0.20;99.90
37410;DHT22;23275;48.914;12.566;2023-03-01T00:13:43;0.20;99.90
37410;DHT22;23275;48.914;12.566;2023-03-01T00:16:15;0.20;99.90
37410;DHT22;23275;48.914;12.566;2023-03-01T00:18:41;0.10;99.90
37410;DHT22;23275;48.914;12.566;2023-03-01T00:21:07;0.10;99.90
37410;DHT22;23275;48.914;12.566;2023-03-01T00:23:36;0.00;99.90
37410;DHT22;23275;48.914;12.566;2023-03-01T00:26:02;0.00;99.90
37410;DHT22;23275;48.914;12.566;2023-03-01T00:28:31;0.00;99.90
37410;DHT22;23275;48.914;12.566;2023-03-01T00:31:03;0.00;99.90
37410;DHT22;23275;48.914;12.566;2023-03-01T00:33:29;0.00;99.90
37410;DHT22;23275;48.914;12.566;2023-03-01T00:35:54;-0.10;99.90
37410;DHT22;23275;48.914;12.566;2023-03-01T00:38:20;-0.10;99.90
37410;DHT22;23275;48.914;12.566;2023-03-01T00:40:45;-0.10;99.90
37410;DHT22;23275;48.914;12.566;2023-03-01T00:43:11;-0.10;99.90
37410;DHT22;23275;48.914;12.566;2023-03-01T00:45:36;-0.20;99.90
37410;DHT22;23275;48.914;12.566;2023-03-01T00:48:02;-0.20;99.90
37410;DHT22;23275;48.914;12.566;2023-03-01T00:50:27;-0.20;99.90
37410;DHT22;23275;48.914;12.566;2023-03-01T00:52:54;-0.20;99.90
37410;DHT22;23275;48.914;12.566;2023-03-01T00:55:20;-0.30;99.90
37410;DHT22;23275;48.914;12.566;2023-03-01T00:57:46;-0.30;99.90
37410;DHT22;23275;48.914;12.566;2023-03-01T01:00:12;-0.40;99.90
37410;DHT22;23275;48.914;12.566;2023-03-01T01:02:37;-0.40;99.90
37410;DHT22;23275;48.914;12.566;2023-03-01T01:05:04;-0.40;99.90
37410;DHT22;23275;48.914;12.566;2023-03-01T01:07:30;-0.40;99.90
37410;DHT22;23275;48.914;12.566;2023-03-01T01:09:55;-0.40;99.90
37410;DHT22;23275;48.914;12.566;2023-03-01T01:12:21;-0.40;99.90
37410;DHT22;23275;48.914;12.566;2023-03-01T01:14:46;-0.40;99.90
37410;DHT22;23275;48.914;12.566;2023-03-01T01:17:12;-0.50;99.90
37410;DHT22;23275;48.914;12.566;2023-03-01T01:19:38;-0.50;99.90
37410;DHT22;23275;48.914;12.566;2023-03-01T01:22:03;-0.50;99.90
37410;DHT22;23275;48.914;12.566;2023-03-01T01:24:29;-0.40;99.90
37410;DHT22;23275;48.914;12.566;2023-03-01T01:26:55;-0.50;99.90
37410;DHT22;23275;48.914;12.566;2023-03-01T01:29:21;-0.50;99.90
37410;DHT22;23275;48.914;12.566;2023-03-01T01:31:46;-0.50;99.90
37410;DHT22;23275;48.914;12.566;2023-03-01T01:34:17;-0.50;99.90
37410;DHT22;23275;48.914;12.566;2023-03-01T01:36:47;-0.50;99.90
37410;DHT22;23275;48.914;12.566;2023-03-01T01:39:12;-0.50;99.90
37410;DHT22;23275;48.914;12.566;2023-03-01T01:41:39;-0.50;99.90
37410;DHT22;23275;48.914;12.566;2023-03-01T01:52:39;-0.50;99.90
37410;DHT22;23275;48.914;12.566;2023-03-01T01:54:56;-0.50;99.90
37410;DHT22;23275;48.914;12.566;2023-03-01T01:57:34;-0.50;99.90
37410;DHT22;23275;48.914;12.566;2023-03-01T02:00:06;-0.60;99.90
37410;DHT22;23275;48.914;12.566;2023-03-01T02:02:32;-0.60;99.90
37410;DHT22;23275;48.914;12.566;2023-03-01T02:08:13;-0.60;99.90
37410;DHT22;23275;48.914;12.566;2023-03-01T02:10:39;-0.60;99.90
37410;DHT22;23275;48.914;12.566;2023-03-01T02:13:06;-0.60;99.90
37410;DHT22;23275;48.914;12.566;2023-03-01T02:15:34;-0.60;99.90
37410;DHT22;23275;48.914;12.566;2023-03-01T02:18:01;-0.60;99.90
37410;DHT22;23275;48.914;12.566;2023-03-01T02:22:55;-0.60;99.90
37410;DHT22;23275;48.914;12.566;2023-03-01T02:30:39;-0.70;99.90
37410;DHT22;23275;48.914;12.566;2023-03-01T02:33:26;-0.70;99.90
37410;DHT22;23275;48.914;12.566;2023-03-01T02:35:53;-0.70;99.90
37410;DHT22;23275;48.914;12.566;2023-03-01T02:38:20;-0.70;99.90
37410;DHT22;23275;48.914;12.566;2023-03-01T02:40:47;-0.70;99.90
37410;DHT22;23275;48.914;12.566;2023-03-01T02:43:14;-0.70;99.90
37410;DHT22;23275;48.914;12.566;2023-03-01T02:45:51;-0.70;99.90
37410;DHT22;23275;48.914;12.566;2023-03-01T02:48:19;-0.70;99.90
37410;DHT22;23275;48.914;12.566;2023-03-01T02:53:29;-0.70;99.90
37410;DHT22;23275;48.914;12.566;2023-03-01T02:55:58;-0.70;99.90
37410;DHT22;23275;48.914;12.566;2023-03-01T02:58:24;-0.70;99.90
37410;DHT22;23275;48.914;12.566;2023-03-01T03:00:50;-0.70;99.90
37410;DHT22;23275;48.914;12.566;2023-03-01T03:03:20;-0.70;99.90
37410;DHT22;23275;48.914;12.566;2023-03-01T03:05:46;-0.70;99.90
37410;DHT22;23275;48.914;12.566;2023-03-01T03:08:13;-0.80;99.90
37410;DHT22;23275;48.914;12.566;2023-03-01T03:10:40;-0.80;99.90
37410;DHT22;23275;48.914;12.566;2023-03-01T03:13:12;-0.80;99.90
37410;DHT22;23275;48.914;12.566;2023-03-01T03:15:39;-0.80;99.90
37410;DHT22;23275;48.914;12.566;2023-03-01T03:18:08;-0.90;99.90
37410;DHT22;23275;48.914;12.566;2023-03-01T03:20:34;-0.90;99.90
37410;DHT22;23275;48.914;12.566;2023-03-01T03:23:00;-0.90;99.90
37410;DHT22;23275;48.914;12.566;2023-03-01T03:25:27;-0.90;99.90
37410;DHT22;23275;48.914;12.566;2023-03-01T03:27:54;-0.90;99.90
37410;DHT22;23275;48.914;12.566;2023-03-01T03:30:23;-0.90;99.90
37410;DHT22;23275;48.914;12.566;2023-03-01T03:32:49;-0.90;99.90
37410;DHT22;23275;48.914;12.566;2023-03-01T03:35:27;-0.90;99.90
37410;DHT22;23275;48.914;12.566;2023-03-01T03:37:54;-0.90;99.90
37410;DHT22;23275;48.914;12.566;2023-03-01T03:40:31;-0.90;99.90
37410;DHT22;23275;48.914;12.566;2023-03-01T03:42:57;-0.90;99.90
37410;DHT22;23275;48.914;12.566;2023-03-01T03:45:22;-0.90;99.90
37410;DHT22;23275;48.914;12.566;2023-03-01T03:47:48;-0.90;99.90
37410;DHT22;23275;48.914;12.566;2023-03-01T03:50:15;-0.90;99.90
37410;DHT22;23275;48.914;12.566;2023-03-01T03:52:41;-1.00;99.90
37410;DHT22;23275;48.914;12.566;2023-03-01T03:55:08;-1.00;99.90
37410;DHT22;23275;48.914;12.566;2023-03-01T03:57:35;-1.00;99.90
37410;DHT22;23275;48.914;12.566;2023-03-01T04:00:00;-1.00;99.90
37410;DHT22;23275;48.914;12.566;2023-03-01T04:02:26;-1.10;99.90
37410;DHT22;23275;48.914;12.566;2023-03-01T04:04:51;-1.10;99.90
37410;DHT22;23275;48.914;12.566;2023-03-01T04:07:17;-1.10;99.90
37410;DHT22;23275;48.914;12.566;2023-03-01T04:09:43;-1.10;99.90
37410;DHT22;23275;48.914;12.566;2023-03-01T04:12:09;-1.10;99.90
37410;DHT22;23275;48.914;12.566;2023-03-01T04:14:36;-1.10;99.90
37410;DHT22;23275;48.914;12.566;2023-03-01T04:17:01;-1.10;99.90
37410;DHT22;23275;48.914;12.566;2023-03-01T04:19:31;-1.10;99.90
37410;DHT22;23275;48.914;12.566;2023-03-01T04:22:02;-1.20;99.90
37410;DHT22;23275;48.914;12.566;2023-03-01T04:24:33;-1.20;99.90
37410;DHT22;23275;48.914;12.566;2023-03-01T04:26:58;-1.20;99.90
37410;DHT22;23275;48.914;12.566;2023-03-01T04:29:24;-1.20;99.90
37410;DHT22;23275;48.914;12.566;2023-03-01T04:31:49;-1.20;99.90
37410;DHT22;23275;48.914;12.566;2023-03-01T04:34:15;-1.20;99.90
37410;DHT22;23275;48.914;12.566;2023-03-01T04:36:40;-1.20;99.90
37410;DHT22;23275;48.914;12.566;2023-03-01T04:39:06;-1.30;99.90
37410;DHT22;23275;48.914;12.566;2023-03-01T04:41:38;-1.30;99.90
37410;DHT22;23275;48.914;12.566;2023-03-01T04:44:05;-1.30;99.90
37410;DHT22;23275;48.914;12.566;2023-03-01T04:46:31;-1.30;99.90
37410;DHT22;23275;48.914;12.566;2023-03-01T04:48:56;-1.30;99.90
37410;DHT22;23275;48.914;12.566;2023-03-01T04:51:22;-1.30;99.90
37410;DHT22;23275;48.914;12.566;2023-03-01T04:53:47;-1.30;99.90
37410;DHT22;23275;48.914;12.566;2023-03-01T04:56:14;-1.30;99.90
37410;DHT22;23275;48.914;12.566;2023-03-01T04:58:40;-1.30;99.90
37410;DHT22;23275;48.914;12.566;2023-03-01T05:01:14;-1.30;99.90
37410;DHT22;23275;48.914;12.566;2023-03-01T05:03:42;-1.30;99.90
37410;DHT22;23275;48.914;12.566;2023-03-01T05:06:08;-1.30;99.90
37410;DHT22;23275;48.914;12.566;2023-03-01T05:08:33;-1.30;99.90
37410;DHT22;23275;48.914;12.566;2023-03-01T05:11:02;-1.30;99.90
37410;DHT22;23275;48.914;12.566;2023-03-01T05:13:28;-1.40;99.90
37410;DHT22;23275;48.914;12.566;2023-03-01T05:15:57;-1.40;99.90
37410;DHT22;23275;48.914;12.566;2023-03-01T05:18:24;-1.40;99.90
37410;DHT22;23275;48.914;12.566;2023-03-01T05:20:53;-1.40;99.90
37410;DHT22;23275;48.914;12.566;2023-03-01T05:23:24;-1.40;99.90
37410;DHT22;23275;48.914;12.566;2023-03-01T05:25:49;-1.40;99.90
37410;DHT22;23275;48.914;12.566;2023-03-01T05:28:18;-1.40;99.90
37410;DHT22;23275;48.914;12.566;2023-03-01T05:30:43;-1.40;99.90
37410;DHT22;23275;48.914;12.566;2023-03-01T05:33:09;-1.40;99.90
37410;DHT22;23275;48.914;12.566;2023-03-01T05:35:39;-1.40;99.90
37410;DHT22;23275;48.914;12.566;2023-03-01T05:38:06;-1.30;99.90
37410;DHT22;23275;48.914;12.566;2023-03-01T05:40:33;-1.30;99.90
37410;DHT22;23275;48.914;12.566;2023-03-01T05:42:59;-1.40;99.90
37410;DHT22;23275;48.914;12.566;2023-03-01T05:45:26;-1.40;99.90
37410;DHT22;23275;48.914;12.566;2023-03-01T05:47:52;-1.30;99.90
37410;DHT22;23275;48.914;12.566;2023-03-01T05:50:23;-1.30;99.90
37410;DHT22;23275;48.914;12.566;2023-03-01T05:53:14;-1.30;99.90
37410;DHT22;23275;48.914;12.566;2023-03-01T05:55:41;-1.30;99.90
37410;DHT22;23275;48.914;12.566;2023-03-01T05:58:13;-1.30;99.90
37410;DHT22;23275;48.914;12.566;2023-03-01T06:00:39;-1.30;99.90
37410;DHT22;23275;48.914;12.566;2023-03-01T06:03:05;-1.30;99.90
37410;DHT22;23275;48.914;12.566;2023-03-01T06:05:31;-1.30;99.90
37410;DHT22;23275;48.914;12.566;2023-03-01T06:07:59;-1.20;99.90
37410;DHT22;23275;48.914;12.566;2023-03-01T06:10:25;-1.20;99.90
37410;DHT22;23275;48.914;12.566;2023-03-01T06:12:51;-1.10;99.90
37410;DHT22;23275;48.914;12.566;2023-03-01T06:15:16;-1.00;99.90
37410;DHT22;23275;48.914;12.566;2023-03-01T06:17:44;-0.90;99.90
37410;DHT22;23275;48.914;12.566;2023-03-01T06:20:14;-0.80;99.90
37410;DHT22;23275;48.914;12.566;2023-03-01T06:22:40;-0.70;99.90
37410;DHT22;23275;48.914;12.566;2023-03-01T06:25:07;-0.70;99.90
37410;DHT22;23275;48.914;12.566;2023-03-01T06:27:33;-0.30;99.90
37410;DHT22;23275;48.914;12.566;2023-03-01T06:29:58;-0.10;99.90
37410;DHT22;23275;48.914;12.566;2023-03-01T06:32:24;0.00;99.90
37410;DHT22;23275;48.914;12.566;2023-03-01T06:34:50;0.40;99.90
37410;DHT22;23275;48.914;12.566;2023-03-01T06:37:16;1.20;99.90
37410;DHT22;23275;48.914;12.566;2023-03-01T06:39:41;1.70;99.90
37410;DHT22;23275;48.914;12.566;2023-03-01T06:42:10;2.70;99.90
37410;DHT22;23275;48.914;12.566;2023-03-01T06:44:37;3.00;99.90
37410;DHT22;23275;48.914;12.566;2023-03-01T06:47:03;2.70;99.90
37410;DHT22;23275;48.914;12.566;2023-03-01T06:49:28;2.30;99.90
37410;DHT22;23275;48.914;12.566;2023-03-01T06:51:55;2.20;99.90
37410;DHT22;23275;48.914;12.566;2023-03-01T06:54:21;2.60;99.90
37410;DHT22;23275;48.914;12.566;2023-03-01T06:56:50;3.60;99.90
37410;DHT22;23275;48.914;12.566;2023-03-01T06:59:16;4.30;99.90
37410;DHT22;23275;48.914;12.566;2023-03-01T07:01:42;5.10;99.90
37410;DHT22;23275;48.914;12.566;2023-03-01T07:04:09;6.70;99.90
37410;DHT22;23275;48.914;12.566;2023-03-01T07:06:34;7.30;99.90
37410;DHT22;23275;48.914;12.566;2023-03-01T07:09:00;8.70;97.20
37410;DHT22;23275;48.914;12.566;2023-03-01T07:11:25;10.00;93.10
37410;DHT22;23275;48.914;12.566;2023-03-01T07:13:51;11.10;87.80
37410;DHT22;23275;48.914;12.566;2023-03-01T07:16:16;11.50;82.90
37410;DHT22;23275;48.914;12.566;2023-03-01T07:18:42;13.00;75.70
37410;DHT22;23275;48.914;12.566;2023-03-01T07:21:09;13.30;71.80
37410;DHT22;23275;48.914;12.566;2023-03-01T07:23:36;12.70;70.30
37410;DHT22;23275;48.914;12.566;2023-03-01T07:26:02;12.70;68.30
37410;DHT22;23275;48.914;12.566;2023-03-01T07:28:28;11.30;71.40
37410;DHT22;23275;48.914;12.566;2023-03-01T07:30:54;9.90;74.20
37410;DHT22;23275;48.914;12.566;2023-03-01T07:33:20;9.00;78.10
37410;DHT22;23275;48.914;12.566;2023-03-01T07:35:46;10.00;76.70
37410;DHT22;23275;48.914;12.566;2023-03-01T07:38:11;10.40;74.00
37410;DHT22;23275;48.914;12.566;2023-03-01T07:40:37;11.50;71.30
37410;DHT22;23275;48.914;12.566;2023-03-01T07:43:03;10.80;71.80
37410;DHT22;23275;48.914;12.566;2023-03-01T07:45:29;10.10;73.80
37410;DHT22;23275;48.914;12.566;2023-03-01T07:47:55;10.40;74.90
37410;DHT22;23275;48.914;12.566;2023-03-01T07:50:21;10.80;73.20
37410;DHT22;23275;48.914;12.566;2023-03-01T07:52:48;12.20;68.90
37410;DHT22;23275;48.914;12.566;2023-03-01T07:55:15;12.30;68.50
37410;DHT22;23275;48.914;12.566;2023-03-01T07:57:42;12.30;68.10
37410;DHT22;23275;48.914;12.566;2023-03-01T08:00:10;13.30;65.30
37410;DHT22;23275;48.914;12.566;2023-03-01T08:02:35;14.80;63.40
37410;DHT22;23275;48.914;12.566;2023-03-01T08:05:01;15.20;59.80
37410;DHT22;23275;48.914;12.566;2023-03-01T08:07:27;16.10;58.10
37410;DHT22;23275;48.914;12.566;2023-03-01T08:09:52;16.50;57.10
37410;DHT22;23275;48.914;12.566;2023-03-01T08:12:18;15.90;56.40
37410;DHT22;23275;48.914;12.566;2023-03-01T08:14:43;14.70;60.10
37410;DHT22;23275;48.914;12.566;2023-03-01T08:17:09;14.70;60.00
37410;DHT22;23275;48.914;12.566;2023-03-01T08:19:34;15.70;56.30
37410;DHT22;23275;48.914;12.566;2023-03-01T08:22:03;15.60;56.50
37410;DHT22;23275;48.914;12.566;2023-03-01T08:24:29;15.70;57.10
37410;DHT22;23275;48.914;12.566;2023-03-01T08:26:54;16.90;54.10
37410;DHT22;23275;48.914;12.566;2023-03-01T08:29:20;17.70;53.40
37410;DHT22;23275;48.914;12.566;2023-03-01T08:31:47;18.70;51.10
37410;DHT22;23275;48.914;12.566;2023-03-01T08:34:15;19.20;50.80
37410;DHT22;23275;48.914;12.566;2023-03-01T08:36:43;20.10;48.90
37410;DHT22;23275;48.914;12.566;2023-03-01T08:39:11;22.40;45.10
37410;DHT22;23275;48.914;12.566;2023-03-01T08:41:37;25.90;39.50
37410;DHT22;23275;48.914;12.566;2023-03-01T08:44:03;27.60;35.50
37410;DHT22;23275;48.914;12.566;2023-03-01T08:46:31;29.80;31.50
37410;DHT22;23275;48.914;12.566;2023-03-01T08:48:57;32.10;30.00
37410;DHT22;23275;48.914;12.566;2023-03-01T08:51:24;33.70;27.80
37410;DHT22;23275;48.914;12.566;2023-03-01T08:53:50;35.10;26.10
37410;DHT22;23275;48.914;12.566;2023-03-01T08:56:17;35.80;25.30
37410;DHT22;23275;48.914;12.566;2023-03-01T08:58:47;36.90;24.30
37410;DHT22;23275;48.914;12.566;2023-03-01T09:01:16;37.90;24.30
37410;DHT22;23275;48.914;12.566;2023-03-01T09:03:43;37.90;23.50
37410;DHT22;23275;48.914;12.566;2023-03-01T09:06:09;38.10;23.10
37410;DHT22;23275;48.914;12.566;2023-03-01T09:08:36;38.50;22.50
37410;DHT22;23275;48.914;12.566;2023-03-01T09:11:03;38.70;21.70
37410;DHT22;23275;48.914;12.566;2023-03-01T09:13:29;39.10;22.80
37410;DHT22;23275;48.914;12.566;2023-03-01T09:15:58;39.10;22.00
37410;DHT22;23275;48.914;12.566;2023-03-01T09:18:24;39.50;21.90
37410;DHT22;23275;48.914;12.566;2023-03-01T09:20:50;38.30;22.30
37410;DHT22;23275;48.914;12.566;2023-03-01T09:23:15;38.10;21.60
37410;DHT22;23275;48.914;12.566;2023-03-01T09:25:41;38.10;22.00
37410;DHT22;23275;48.914;12.566;2023-03-01T09:28:06;37.40;22.20
37410;DHT22;23275;48.914;12.566;2023-03-01T09:30:32;36.90;21.70
37410;DHT22;23275;48.914;12.566;2023-03-01T09:32:58;35.90;23.20
37410;DHT22;23275;48.914;12.566;2023-03-01T09:35:24;35.70;22.50
37410;DHT22;23275;48.914;12.566;2023-03-01T09:37:49;36.20;21.70
37410;DHT22;23275;48.914;12.566;2023-03-01T09:40:18;36.60;21.70
37410;DHT22;23275;48.914;12.566;2023-03-01T09:43:08;37.10;22.50
37410;DHT22;23275;48.914;12.566;2023-03-01T09:45:44;37.30;22.00
37410;DHT22;23275;48.914;12.566;2023-03-01T09:48:17;37.20;22.80
37410;DHT22;23275;48.914;12.566;2023-03-01T09:50:44;37.50;22.80
37410;DHT22;23275;48.914;12.566;2023-03-01T09:53:31;37.80;22.20
37410;DHT22;23275;48.914;12.566;2023-03-01T09:56:20;37.60;22.40
37410;DHT22;23275;48.914;12.566;2023-03-01T09:58:53;37.40;22.80
37410;DHT22;23275;48.914;12.566;2023-03-01T10:01:41;37.00;22.30
37410;DHT22;23275;48.914;12.566;2023-03-01T10:09:37;34.30;23.70
37410;DHT22;23275;48.914;12.566;2023-03-01T10:12:18;34.70;23.50
37410;DHT22;23275;48.914;12.566;2023-03-01T10:19:55;34.00;24.50
37410;DHT22;23275;48.914;12.566;2023-03-01T10:22:22;33.70;23.70
37410;DHT22;23275;48.914;12.566;2023-03-01T10:24:51;34.00;24.00
37410;DHT22;23275;48.914;12.566;2023-03-01T10:32:26;32.20;24.70
37410;DHT22;23275;48.914;12.566;2023-03-01T10:34:52;31.30;25.70
37410;DHT22;23275;48.914;12.566;2023-03-01T10:37:19;31.70;26.10
37410;DHT22;23275;48.914;12.566;2023-03-01T10:42:32;32.30;25.60
37410;DHT22;23275;48.914;12.566;2023-03-01T10:50:29;31.90;25.80
37410;DHT22;23275;48.914;12.566;2023-03-01T10:53:01;32.10;25.20
37410;DHT22;23275;48.914;12.566;2023-03-01T10:55:38;31.50;25.60
37410;DHT22;23275;48.914;12.566;2023-03-01T10:58:16;31.50;25.50
37410;DHT22;23275;48.914;12.566;2023-03-01T11:00:53;30.20;26.90
37410;DHT22;23275;48.914;12.566;2023-03-01T11:03:38;29.50;25.50
37410;DHT22;23275;48.914;12.566;2023-03-01T11:06:08;30.00;26.00
37410;DHT22;23275;48.914;12.566;2023-03-01T11:08:45;30.20;26.90
37410;DHT22;23275;48.914;12.566;2023-03-01T11:11:29;28.90;27.50
37410;DHT22;23275;48.914;12.566;2023-03-01T11:13:59;27.20;28.70
37410;DHT22;23275;48.914;12.566;2023-03-01T11:16:33;24.70;30.50
37410;DHT22;23275;48.914;12.566;2023-03-01T11:19:20;22.00;33.20
37410;DHT22;23275;48.914;12.566;2023-03-01T11:22:07;18.60;40.10
37410;DHT22;23275;48.914;12.566;2023-03-01T11:24:44;17.10;42.40
37410;DHT22;23275;48.914;12.566;2023-03-01T11:30:00;15.80;45.00
37410;DHT22;23275;48.914;12.566;2023-03-01T11:32:34;15.20;45.50
37410;DHT22;23275;48.914;12.566;2023-03-01T11:35:17;14.40;46.60
37410;DHT22;23275;48.914;12.566;2023-03-01T11:38:09;13.90;48.50
37410;DHT22;23275;48.914;12.566;2023-03-01T12:06:26;12.90;54.00
37410;DHT22;23275;48.914;12.566;2023-03-01T12:17:18;12.60;54.90
37410;DHT22;23275;48.914;12.566;2023-03-01T12:20:07;12.40;55.40
37410;DHT22;23275;48.914;12.566;2023-03-01T12:28:35;12.20;56.80
37410;DHT22;23275;48.914;12.566;2023-03-01T12:39:24;11.30;58.80
37410;DHT22;23275;48.914;12.566;2023-03-01T12:50:11;11.10;61.20
37410;DHT22;23275;48.914;12.566;2023-03-01T12:52:43;11.10;59.30
37410;DHT22;23275;48.914;12.566;2023-03-01T12:55:24;11.10;61.40
37410;DHT22;23275;48.914;12.566;2023-03-01T12:58:07;11.30;60.10
37410;DHT22;23275;48.914;12.566;2023-03-01T13:11:04;11.40;60.90
37410;DHT22;23275;48.914;12.566;2023-03-01T13:13:31;11.30;60.10
37410;DHT22;23275;48.914;12.566;2023-03-01T13:15:57;11.10;61.80
37410;DHT22;23275;48.914;12.566;2023-03-01T13:18:43;11.00;62.90
37410;DHT22;23275;48.914;12.566;2023-03-01T13:21:08;10.80;63.30
37410;DHT22;23275;48.914;12.566;2023-03-01T13:23:37;10.60;63.50
37410;DHT22;23275;48.914;12.566;2023-03-01T13:26:36;10.60;65.40
37410;DHT22;23275;48.914;12.566;2023-03-01T13:28:58;10.60;65.90
37410;DHT22;23275;48.914;12.566;2023-03-01T13:33:55;10.40;64.60
37410;DHT22;23275;48.914;12.566;2023-03-01T13:39:28;10.40;64.50
37410;DHT22;23275;48.914;12.566;2023-03-01T13:41:56;10.40;65.60
37410;DHT22;23275;48.914;12.566;2023-03-01T13:49:41;10.30;66.20
37410;DHT22;23275;48.914;12.566;2023-03-01T13:54:56;9.90;66.70
37410;DHT22;23275;48.914;12.566;2023-03-01T13:57:26;9.80;67.90
37410;DHT22;23275;48.914;12.566;2023-03-01T13:59:53;9.70;67.00
37410;DHT22;23275;48.914;12.566;2023-03-01T14:02:18;9.50;68.50
37410;DHT22;23275;48.914;12.566;2023-03-01T14:04:56;9.50;70.30
37410;DHT22;23275;48.914;12.566;2023-03-01T14:07:23;9.60;70.30
37410;DHT22;23275;48.914;12.566;2023-03-01T14:09:55;9.60;71.30
37410;DHT22;23275;48.914;12.566;2023-03-01T14:20:55;9.60;71.70
37410;DHT22;23275;48.914;12.566;2023-03-01T14:23:23;9.60;71.40
37410;DHT22;23275;48.914;12.566;2023-03-01T14:25:52;9.60;72.60
37410;DHT22;23275;48.914;12.566;2023-03-01T14:28:21;9.60;73.50
37410;DHT22;23275;48.914;12.566;2023-03-01T14:30:50;9.50;73.20
37410;DHT22;23275;48.914;12.566;2023-03-01T14:33:27;9.50;72.70
37410;DHT22;23275;48.914;12.566;2023-03-01T14:36:00;9.30;74.60
37410;DHT22;23275;48.914;12.566;2023-03-01T14:38:40;9.20;72.80
37410;DHT22;23275;48.914;12.566;2023-03-01T14:41:20;9.00;74.60
37410;DHT22;23275;48.914;12.566;2023-03-01T14:44:02;8.90;74.20
37410;DHT22;23275;48.914;12.566;2023-03-01T14:46:35;8.90;75.40
37410;DHT22;23275;48.914;12.566;2023-03-01T14:49:10;9.00;76.40
37410;DHT22;23275;48.914;12.566;2023-03-01T14:51:42;9.00;76.70
37410;DHT22;23275;48.914;12.566;2023-03-01T14:56:47;9.00;75.20
37410;DHT22;23275;48.914;12.566;2023-03-01T14:59:12;8.90;76.30
37410;DHT22;23275;48.914;12.566;2023-03-01T15:01:40;8.80;76.90
37410;DHT22;23275;48.914;12.566;2023-03-01T15:04:11;8.80;77.10
37410;DHT22;23275;48.914;12.566;2023-03-01T15:06:37;8.80;77.20
37410;DHT22;23275;48.914;12.566;2023-03-01T15:09:03;8.80;78.70
37410;DHT22;23275;48.914;12.566;2023-03-01T15:11:32;8.80;78.50
37410;DHT22;23275;48.914;12.566;2023-03-01T15:13:58;8.70;77.90
37410;DHT22;23275;48.914;12.566;2023-03-01T15:16:26;8.60;78.40
37410;DHT22;23275;48.914;12.566;2023-03-01T15:18:57;8.50;78.60
37410;DHT22;23275;48.914;12.566;2023-03-01T15:21:26;8.40;79.70
37410;DHT22;23275;48.914;12.566;2023-03-01T15:24:17;8.30;81.30
37410;DHT22;23275;48.914;12.566;2023-03-01T15:26:52;8.30;81.50
37410;DHT22;23275;48.914;12.566;2023-03-01T15:29:25;8.30;81.20
37410;DHT22;23275;48.914;12.566;2023-03-01T15:32:06;8.30;82.00
37410;DHT22;23275;48.914;12.566;2023-03-01T15:34:37;8.30;82.00
37410;DHT22;23275;48.914;12.566;2023-03-01T15:37:05;8.30;82.40
37410;DHT22;23275;48.914;12.566;2023-03-01T15:39:37;8.30;82.80
37410;DHT22;23275;48.914;12.566;2023-03-01T15:42:12;8.20;83.50
37410;DHT22;23275;48.914;12.566;2023-03-01T15:44:40;8.20;82.40
37410;DHT22;23275;48.914;12.566;2023-03-01T15:47:23;8.10;83.60
37410;DHT22;23275;48.914;12.566;2023-03-01T15:49:52;8.10;83.40
37410;DHT22;23275;48.914;12.566;2023-03-01T15:52:32;8.00;84.00
37410;DHT22;23275;48.914;12.566;2023-03-01T15:55:04;7.90;85.00
37410;DHT22;23275;48.914;12.566;2023-03-01T15:57:30;7.80;84.20
37410;DHT22;23275;48.914;12.566;2023-03-01T15:59:56;7.70;85.30
37410;DHT22;23275;48.914;12.566;2023-03-01T16:02:23;7.70;86.60
37410;DHT22;23275;48.914;12.566;2023-03-01T16:04:49;7.60;87.20
37410;DHT22;23275;48.914;12.566;2023-03-01T16:07:15;7.60;86.70
37410;DHT22;23275;48.914;12.566;2023-03-01T16:09:41;7.50;87.50
37410;DHT22;23275;48.914;12.566;2023-03-01T16:12:13;7.40;88.70
37410;DHT22;23275;48.914;12.566;2023-03-01T16:14:39;7.40;88.70
37410;DHT22;23275;48.914;12.566;2023-03-01T16:17:04;7.30;89.50
37410;DHT22;23275;48.914;12.566;2023-03-01T16:19:30;7.20;90.00
37410;DHT22;23275;48.914;12.566;2023-03-01T16:21:56;7.10;90.40
37410;DHT22;23275;48.914;12.566;2023-03-01T16:24:21;7.00;90.90
37410;DHT22;23275;48.914;12.566;2023-03-01T16:26:47;7.00;90.90
37410;DHT22;23275;48.914;12.566;2023-03-01T16:29:12;6.90;91.10
37410;DHT22;23275;48.914;12.566;2023-03-01T16:31:38;6.80;91.30
37410;DHT22;23275;48.914;12.566;2023-03-01T16:34:04;6.70;91.60
37410;DHT22;23275;48.914;12.566;2023-03-01T16:36:29;6.60;91.80
37410;DHT22;23275;48.914;12.566;2023-03-01T16:38:58;6.50;92.30
37410;DHT22;23275;48.914;12.566;2023-03-01T16:41:26;6.40;93.00
37410;DHT22;23275;48.914;12.566;2023-03-01T16:43:52;6.30;92.80
37410;DHT22;23275;48.914;12.566;2023-03-01T16:46:21;6.20;93.10
37410;DHT22;23275;48.914;12.566;2023-03-01T16:48:48;6.10;93.30
37410;DHT22;23275;48.914;12.566;2023-03-01T16:51:14;6.10;93.60
37410;DHT22;23275;48.914;12.566;2023-03-01T16:53:40;5.90;94.00
37410;DHT22;23275;48.914;12.566;2023-03-01T16:56:08;5.90;94.30
37410;DHT22;23275;48.914;12.566;2023-03-01T16:58:35;5.80;94.70
37410;DHT22;23275;48.914;12.566;2023-03-01T17:01:18;5.70;94.90
37410;DHT22;23275;48.914;12.566;2023-03-01T17:03:46;5.60;95.30
37410;DHT22;23275;48.914;12.566;2023-03-01T17:06:17;5.50;95.80
37410;DHT22;23275;48.914;12.566;2023-03-01T17:08:43;5.40;96.30
37410;DHT22;23275;48.914;12.566;2023-03-01T17:11:12;5.40;96.50
37410;DHT22;23275;48.914;12.566;2023-03-01T17:13:38;5.40;96.70
37410;DHT22;23275;48.914;12.566;2023-03-01T17:16:09;5.30;97.20
37410;DHT22;23275;48.914;12.566;2023-03-01T17:18:36;5.20;97.60
37410;DHT22;23275;48.914;12.566;2023-03-01T17:21:04;5.20;97.80
37410;DHT22;23275;48.914;12.566;2023-03-01T17:23:31;5.20;98.10
37410;DHT22;23275;48.914;12.566;2023-03-01T17:25:57;5.10;98.50
37410;DHT22;23275;48.914;12.566;2023-03-01T17:28:25;5.10;98.80
37410;DHT22;23275;48.914;12.566;2023-03-01T17:30:51;5.10;99.10
37410;DHT22;23275;48.914;12.566;2023-03-01T17:33:18;5.00;99.50
37410;DHT22;23275;48.914;12.566;2023-03-01T17:35:44;5.00;99.90
37410;DHT22;23275;48.914;12.566;2023-03-01T17:38:12;4.90;99.90
37410;DHT22;23275;48.914;12.566;2023-03-01T17:40:39;4.90;99.90
37410;DHT22;23275;48.914;12.566;2023-03-01T17:43:05;4.80;99.90
37410;DHT22;23275;48.914;12.566;2023-03-01T17:45:30;4.80;99.90
37410;DHT22;23275;48.914;12.566;2023-03-01T17:47:56;4.80;99.90
37410;DHT22;23275;48.914;12.566;2023-03-01T17:50:22;4.70;99.90
37410;DHT22;23275;48.914;12.566;2023-03-01T17:52:47;4.60;99.90